sensor_id;sensor_type;location;lat;lon;timestamp;temperature;humidity
5848;DHT22;8756;49.29324300;8.70599800;2022-11-11T00:00:15;6.50;99.90
5848;DHT22;8756;49.29324300;8.70599800;2022-11-11T00:02:41;6.50;99.90
5848;DHT22;8756;49.29324300;8.70599800;2022-11-11T00:05:06;6.50;99.90
5848;DHT22;8756;49.29324300;8.70599800;2022-11-11T00:07:32;6.50;99.90
5848;DHT22;8756;49.29324300;8.70599800;2022-11-11T00:09:58;6.50;99.90
5848;DHT22;8756;49.29324300;8.70599800;2022-11-11T00:12:24;6.50;99.90
5848;DHT22;8756;49.29324300;8.70599800;2022-11-11T00:14:49;6.50;99.90
5848;DHT22;8756;49.29324300;8.70599800;2022-11-11T00:17:15;6.50;99.90
5848;DHT22;8756;49.29324300;8.70599800;2022-11-11T00:20:00;6.50;99.90
5848;DHT22;8756;49.29324300;8.70599800;2022-11-11T00:22:47;6.50;99.90
5848;DHT22;8756;49.29324300;8.70599800;2022-11-11T00:25:31;6.60;99.90
5848;DHT22;8756;49.29324300;8.70599800;2022-11-11T00:27:56;6.50;99.90
5848;DHT22;8756;49.29324300;8.70599800;2022-11-11T00:30:22;6.50;99.90
5848;DHT22;8756;49.29324300;8.70599800;2022-11-11T00:32:48;6.50;99.90
5848;DHT22;8756;49.29324300;8.70599800;2022-11-11T00:35:14;6.50;99.90
5848;DHT22;8756;49.29324300;8.70599800;2022-11-11T00:38:09;6.50;99.90
5848;DHT22;8756;49.29324300;8.70599800;2022-11-11T00:40:56;6.50;99.90
5848;DHT22;8756;49.29324300;8.70599800;2022-11-11T00:43:22;6.40;99.90
5848;DHT22;8756;49.29324300;8.70599800;2022-11-11T00:45:48;6.40;99.90
5848;DHT22;8756;49.29324300;8.70599800;2022-11-11T00:48:14;6.30;99.90
5848;DHT22;8756;49.29324300;8.70599800;2022-11-11T00:50:58;6.30;99.90
5848;DHT22;8756;49.29324300;8.70599800;2022-11-11T00:53:26;6.20;99.90
5848;DHT22;8756;49.29324300;8.70599800;2022-11-11T00:55:55;6.30;99.90
5848;DHT22;8756;49.29324300;8.70599800;2022-11-11T00:58:24;6.20;99.90
5848;DHT22;8756;49.29324300;8.70599800;2022-11-11T01:00:52;6.20;99.90
5848;DHT22;8756;49.29324300;8.70599800;2022-11-11T01:03:21;6.20;99.90
5848;DHT22;8756;49.29324300;8.70599800;2022-11-11T01:05:47;6.10;99.90
5848;DHT22;8756;49.29324300;8.70599800;2022-11-11T01:08:14;6.20;99.90
5848;DHT22;8756;49.29324300;8.70599800;2022-11-11T01:10:39;6.20;99.90
5848;DHT22;8756;49.29324300;8.70599800;2022-11-11T01:13:23;6.20;99.90
5848;DHT22;8756;49.29324300;8.70599800;2022-11-11T01:15:58;6.20;99.90
5848;DHT22;8756;49.29324300;8.70599800;2022-11-11T01:18:32;6.20;99.90
5848;DHT22;8756;49.29324300;8.70599800;2022-11-11T01:21:12;6.20;99.90
5848;DHT22;8756;49.29324300;8.70599800;2022-11-11T01:23:43;6.20;99.90
5848;DHT22;8756;49.29324300;8.70599800;2022-11-11T01:26:26;6.20;99.90
5848;DHT22;8756;49.29324300;8.70599800;2022-11-11T01:28:54;6.20;99.90
5848;DHT22;8756;49.29324300;8.70599800;2022-11-11T01:31:22;6.10;99.90
5848;DHT22;8756;49.29324300;8.70599800;2022-11-11T01:33:49;6.10;99.90
5848;DHT22;8756;49.29324300;8.70599800;2022-11-11T01:36:21;6.00;99.90
5848;DHT22;8756;49.29324300;8.70599800;2022-11-11T01:38:55;5.90;99.90
5848;DHT22;8756;49.29324300;8.70599800;2022-11-11T01:41:25;5.80;99.90
5848;DHT22;8756;49.29324300;8.70599800;2022-11-11T01:46:50;5.70;99.90
5848;DHT22;8756;49.29324300;8.70599800;2022-11-11T01:55:09;5.50;99.90
5848;DHT22;8756;49.29324300;8.70599800;2022-11-11T01:57:52;5.50;99.90
5848;DHT22;8756;49.29324300;8.70599800;2022-11-11T02:00:27;5.50;99.90
5848;DHT22;8756;49.29324300;8.70599800;2022-11-11T02:02:58;5.40;99.90
5848;DHT22;8756;49.29324300;8.70599800;2022-11-11T02:05:27;5.40;99.90
5848;DHT22;8756;49.29324300;8.70599800;2022-11-11T02:08:12;5.30;99.90
5848;DHT22;8756;49.29324300;8.70599800;2022-11-11T02:10:43;5.30;99.90
5848;DHT22;8756;49.29324300;8.70599800;2022-11-11T02:13:14;5.30;99.90
5848;DHT22;8756;49.29324300;8.70599800;2022-11-11T02:15:59;5.20;99.90
5848;DHT22;8756;49.29324300;8.70599800;2022-11-11T02:18:26;5.20;99.90
5848;DHT22;8756;49.29324300;8.70599800;2022-11-11T02:20:52;5.20;99.90
5848;DHT22;8756;49.29324300;8.70599800;2022-11-11T02:23:31;5.20;99.90
5848;DHT22;8756;49.29324300;8.70599800;2022-11-11T02:26:02;5.20;99.90
5848;DHT22;8756;49.29324300;8.70599800;2022-11-11T02:28:31;5.20;99.90
5848;DHT22;8756;49.29324300;8.70599800;2022-11-11T02:30:58;5.20;99.90
5848;DHT22;8756;49.29324300;8.70599800;2022-11-11T02:33:23;5.20;99.90
5848;DHT22;8756;49.29324300;8.70599800;2022-11-11T02:35:52;5.20;99.90
5848;DHT22;8756;49.29324300;8.70599800;2022-11-11T02:38:24;5.30;99.90
5848;DHT22;8756;49.29324300;8.70599800;2022-11-11T02:40:50;5.30;99.90
5848;DHT22;8756;49.29324300;8.70599800;2022-11-11T02:43:35;5.30;99.90
5848;DHT22;8756;49.29324300;8.70599800;2022-11-11T02:46:03;5.30;99.90
5848;DHT22;8756;49.29324300;8.70599800;2022-11-11T02:48:29;5.30;99.90
5848;DHT22;8756;49.29324300;8.70599800;2022-11-11T02:50:56;5.30;99.90
5848;DHT22;8756;49.29324300;8.70599800;2022-11-11T02:53:22;5.30;99.90
5848;DHT22;8756;49.29324300;8.70599800;2022-11-11T02:55:48;5.30;99.90
5848;DHT22;8756;49.29324300;8.70599800;2022-11-11T02:58:15;5.30;99.90
5848;DHT22;8756;49.29324300;8.70599800;2022-11-11T03:00:41;5.30;99.90
5848;DHT22;8756;49.29324300;8.70599800;2022-11-11T03:03:08;5.20;99.90
5848;DHT22;8756;49.29324300;8.70599800;2022-11-11T03:05:34;5.20;99.90
5848;DHT22;8756;49.29324300;8.70599800;2022-11-11T03:08:01;5.20;99.90
5848;DHT22;8756;49.29324300;8.70599800;2022-11-11T03:10:27;5.20;99.90
5848;DHT22;8756;49.29324300;8.70599800;2022-11-11T03:12:55;5.20;99.90
5848;DHT22;8756;49.29324300;8.70599800;2022-11-11T03:15:21;5.20;99.90
5848;DHT22;8756;49.29324300;8.70599800;2022-11-11T03:17:47;5.30;99.90
5848;DHT22;8756;49.29324300;8.70599800;2022-11-11T03:20:15;5.30;99.90
5848;DHT22;8756;49.29324300;8.70599800;2022-11-11T03:23:03;5.40;99.90
5848;DHT22;8756;49.29324300;8.70599800;2022-11-11T03:25:43;5.40;99.90
5848;DHT22;8756;49.29324300;8.70599800;2022-11-11T03:28:16;5.50;99.90
5848;DHT22;8756;49.29324300;8.70599800;2022-11-11T03:30:49;5.50;99.90
5848;DHT22;8756;49.29324300;8.70599800;2022-11-11T03:33:16;5.60;99.90
5848;DHT22;8756;49.29324300;8.70599800;2022-11-11T03:35:45;5.60;99.90
5848;DHT22;8756;49.29324300;8.70599800;2022-11-11T03:38:12;5.60;99.90
5848;DHT22;8756;49.29324300;8.70599800;2022-11-11T03:40:50;5.50;99.90
5848;DHT22;8756;49.29324300;8.70599800;2022-11-11T03:43:18;5.50;99.90
5848;DHT22;8756;49.29324300;8.70599800;2022-11-11T03:45:45;5.50;99.90
5848;DHT22;8756;49.29324300;8.70599800;2022-11-11T03:48:12;5.40;99.90
5848;DHT22;8756;49.29324300;8.70599800;2022-11-11T03:50:39;5.40;99.90
5848;DHT22;8756;49.29324300;8.70599800;2022-11-11T03:53:05;5.40;99.90
5848;DHT22;8756;49.29324300;8.70599800;2022-11-11T03:55:31;5.40;99.90
5848;DHT22;8756;49.29324300;8.70599800;2022-11-11T03:57:57;5.40;99.90
5848;DHT22;8756;49.29324300;8.70599800;2022-11-11T04:00:25;5.40;99.90
5848;DHT22;8756;49.29324300;8.70599800;2022-11-11T04:03:08;5.30;99.90
5848;DHT22;8756;49.29324300;8.70599800;2022-11-11T04:05:54;5.30;99.90
5848;DHT22;8756;49.29324300;8.70599800;2022-11-11T04:08:38;5.30;99.90
5848;DHT22;8756;49.29324300;8.70599800;2022-11-11T04:11:32;5.20;99.90
5848;DHT22;8756;49.29324300;8.70599800;2022-11-11T04:14:03;5.10;99.90
5848;DHT22;8756;49.29324300;8.70599800;2022-11-11T04:16:49;5.10;99.90
5848;DHT22;8756;49.29324300;8.70599800;2022-11-11T04:19:14;5.00;99.90
5848;DHT22;8756;49.29324300;8.70599800;2022-11-11T04:21:59;5.00;99.90
5848;DHT22;8756;49.29324300;8.70599800;2022-11-11T04:24:25;5.00;99.90
5848;DHT22;8756;49.29324300;8.70599800;2022-11-11T04:27:11;4.90;99.90
5848;DHT22;8756;49.29324300;8.70599800;2022-11-11T04:29:38;4.90;99.90
5848;DHT22;8756;49.29324300;8.70599800;2022-11-11T04:32:07;4.90;99.90
5848;DHT22;8756;49.29324300;8.70599800;2022-11-11T04:34:57;4.90;99.90
5848;DHT22;8756;49.29324300;8.70599800;2022-11-11T04:37:31;4.80;99.90
5848;DHT22;8756;49.29324300;8.70599800;2022-11-11T04:39:58;4.80;99.90
5848;DHT22;8756;49.29324300;8.70599800;2022-11-11T04:42:43;4.80;99.90
5848;DHT22;8756;49.29324300;8.70599800;2022-11-11T04:45:10;4.70;99.90
5848;DHT22;8756;49.29324300;8.70599800;2022-11-11T04:48:07;4.70;99.90
5848;DHT22;8756;49.29324300;8.70599800;2022-11-11T04:50:36;4.70;99.90
5848;DHT22;8756;49.29324300;8.70599800;2022-11-11T04:53:05;4.60;99.90
5848;DHT22;8756;49.29324300;8.70599800;2022-11-11T04:55:32;4.60;99.90
5848;DHT22;8756;49.29324300;8.70599800;2022-11-11T04:58:18;4.60;99.90
5848;DHT22;8756;49.29324300;8.70599800;2022-11-11T05:00:45;4.60;99.90
5848;DHT22;8756;49.29324300;8.70599800;2022-11-11T05:03:12;4.50;99.90
5848;DHT22;8756;49.29324300;8.70599800;2022-11-11T05:06:01;4.50;99.90
5848;DHT22;8756;49.29324300;8.70599800;2022-11-11T05:08:49;4.50;99.90
5848;DHT22;8756;49.29324300;8.70599800;2022-11-11T05:13:51;4.40;99.90
5848;DHT22;8756;49.29324300;8.70599800;2022-11-11T05:16:38;4.40;99.90
5848;DHT22;8756;49.29324300;8.70599800;2022-11-11T05:19:28;4.50;99.90
5848;DHT22;8756;49.29324300;8.70599800;2022-11-11T05:22:22;4.50;99.90
5848;DHT22;8756;49.29324300;8.70599800;2022-11-11T05:24:50;4.50;99.90
5848;DHT22;8756;49.29324300;8.70599800;2022-11-11T05:27:35;4.50;99.90
5848;DHT22;8756;49.29324300;8.70599800;2022-11-11T05:30:01;4.50;99.90
5848;DHT22;8756;49.29324300;8.70599800;2022-11-11T05:32:27;4.50;99.90
5848;DHT22;8756;49.29324300;8.70599800;2022-11-11T05:34:53;4.50;99.90
5848;DHT22;8756;49.29324300;8.70599800;2022-11-11T05:37:19;4.50;99.90
5848;DHT22;8756;49.29324300;8.70599800;2022-11-11T05:39:45;4.40;99.90
5848;DHT22;8756;49.29324300;8.70599800;2022-11-11T05:42:11;4.40;99.90
5848;DHT22;8756;49.29324300;8.70599800;2022-11-11T05:44:37;4.30;99.90
5848;DHT22;8756;49.29324300;8.70599800;2022-11-11T05:47:03;4.30;99.90
5848;DHT22;8756;49.29324300;8.70599800;2022-11-11T05:49:29;4.30;99.90
5848;DHT22;8756;49.29324300;8.70599800;2022-11-11T05:51:55;4.30;99.90
5848;DHT22;8756;49.29324300;8.70599800;2022-11-11T05:54:21;4.30;99.90
5848;DHT22;8756;49.29324300;8.70599800;2022-11-11T05:56:47;4.30;99.90
5848;DHT22;8756;49.29324300;8.70599800;2022-11-11T05:59:13;4.30;99.90
5848;DHT22;8756;49.29324300;8.70599800;2022-11-11T06:01:39;4.30;99.90
5848;DHT22;8756;49.29324300;8.70599800;2022-11-11T06:04:06;4.40;99.90
5848;DHT22;8756;49.29324300;8.70599800;2022-11-11T06:06:33;4.40;99.90
5848;DHT22;8756;49.29324300;8.70599800;2022-11-11T06:08:59;4.40;99.90
5848;DHT22;8756;49.29324300;8.70599800;2022-11-11T06:11:25;4.40;99.90
5848;DHT22;8756;49.29324300;8.70599800;2022-11-11T06:13:52;4.40;99.90
5848;DHT22;8756;49.29324300;8.70599800;2022-11-11T06:16:18;4.40;99.90
5848;DHT22;8756;49.29324300;8.70599800;2022-11-11T06:18:44;4.40;99.90
5848;DHT22;8756;49.29324300;8.70599800;2022-11-11T06:21:10;4.40;99.90
5848;DHT22;8756;49.29324300;8.70599800;2022-11-11T06:23:36;4.30;99.90
5848;DHT22;8756;49.29324300;8.70599800;2022-11-11T06:26:02;4.30;99.90
5848;DHT22;8756;49.29324300;8.70599800;2022-11-11T06:28:43;4.30;99.90
5848;DHT22;8756;49.29324300;8.70599800;2022-11-11T06:31:12;4.30;99.90
5848;DHT22;8756;49.29324300;8.70599800;2022-11-11T06:33:39;4.30;99.90
5848;DHT22;8756;49.29324300;8.70599800;2022-11-11T06:36:06;4.30;99.90
5848;DHT22;8756;49.29324300;8.70599800;2022-11-11T06:38:33;4.30;99.90
5848;DHT22;8756;49.29324300;8.70599800;2022-11-11T06:40:58;4.30;99.90
5848;DHT22;8756;49.29324300;8.70599800;2022-11-11T06:43:24;4.30;99.90
5848;DHT22;8756;49.29324300;8.70599800;2022-11-11T06:45:51;4.30;99.90
5848;DHT22;8756;49.29324300;8.70599800;2022-11-11T06:48:19;4.40;99.90
5848;DHT22;8756;49.29324300;8.70599800;2022-11-11T06:50:45;4.40;99.90
5848;DHT22;8756;49.29324300;8.70599800;2022-11-11T06:53:13;4.40;99.90
5848;DHT22;8756;49.29324300;8.70599800;2022-11-11T06:55:40;4.50;99.90
5848;DHT22;8756;49.29324300;8.70599800;2022-11-11T06:58:17;4.50;99.90
5848;DHT22;8756;49.29324300;8.70599800;2022-11-11T07:00:45;4.50;99.90
5848;DHT22;8756;49.29324300;8.70599800;2022-11-11T07:03:14;4.50;99.90
5848;DHT22;8756;49.29324300;8.70599800;2022-11-11T07:05:44;4.50;99.90
5848;DHT22;8756;49.29324300;8.70599800;2022-11-11T07:08:19;4.60;99.90
5848;DHT22;8756;49.29324300;8.70599800;2022-11-11T07:10:47;4.60;99.90
5848;DHT22;8756;49.29324300;8.70599800;2022-11-11T07:13:14;4.70;99.90
5848;DHT22;8756;49.29324300;8.70599800;2022-11-11T07:15:43;4.60;99.90
5848;DHT22;8756;49.29324300;8.70599800;2022-11-11T07:18:16;4.60;99.90
5848;DHT22;8756;49.29324300;8.70599800;2022-11-11T07:20:47;4.70;99.90
5848;DHT22;8756;49.29324300;8.70599800;2022-11-11T07:23:13;4.60;99.90
5848;DHT22;8756;49.29324300;8.70599800;2022-11-11T07:25:40;4.70;99.90
5848;DHT22;8756;49.29324300;8.70599800;2022-11-11T07:28:05;4.70;99.90
5848;DHT22;8756;49.29324300;8.70599800;2022-11-11T07:30:31;4.80;99.90
5848;DHT22;8756;49.29324300;8.70599800;2022-11-11T07:32:57;4.80;99.90
5848;DHT22;8756;49.29324300;8.70599800;2022-11-11T07:35:23;4.80;99.90
5848;DHT22;8756;49.29324300;8.70599800;2022-11-11T07:37:48;4.90;99.90
5848;DHT22;8756;49.29324300;8.70599800;2022-11-11T07:40:16;4.90;99.90
5848;DHT22;8756;49.29324300;8.70599800;2022-11-11T07:42:43;4.90;99.90
5848;DHT22;8756;49.29324300;8.70599800;2022-11-11T07:45:10;4.90;99.90
5848;DHT22;8756;49.29324300;8.70599800;2022-11-11T07:47:37;4.90;99.90
5848;DHT22;8756;49.29324300;8.70599800;2022-11-11T07:50:04;4.90;99.90
5848;DHT22;8756;49.29324300;8.70599800;2022-11-11T07:52:31;4.90;99.90
5848;DHT22;8756;49.29324300;8.70599800;2022-11-11T07:54:57;4.90;99.90
5848;DHT22;8756;49.29324300;8.70599800;2022-11-11T07:57:23;4.90;99.90
5848;DHT22;8756;49.29324300;8.70599800;2022-11-11T07:59:49;4.90;99.90
5848;DHT22;8756;49.29324300;8.70599800;2022-11-11T08:02:15;4.90;99.90
5848;DHT22;8756;49.29324300;8.70599800;2022-11-11T08:04:41;5.00;99.90
5848;DHT22;8756;49.29324300;8.70599800;2022-11-11T08:07:06;5.00;99.90
5848;DHT22;8756;49.29324300;8.70599800;2022-11-11T08:09:32;5.10;99.90
5848;DHT22;8756;49.29324300;8.70599800;2022-11-11T08:11:58;5.10;99.90
5848;DHT22;8756;49.29324300;8.70599800;2022-11-11T08:14:42;5.20;99.90
5848;DHT22;8756;49.29324300;8.70599800;2022-11-11T08:17:08;5.20;99.90
5848;DHT22;8756;49.29324300;8.70599800;2022-11-11T08:19:34;5.30;99.90
5848;DHT22;8756;49.29324300;8.70599800;2022-11-11T08:21:59;5.40;99.90
5848;DHT22;8756;49.29324300;8.70599800;2022-11-11T08:24:25;5.50;99.90
5848;DHT22;8756;49.29324300;8.70599800;2022-11-11T08:26:51;5.50;99.90
5848;DHT22;8756;49.29324300;8.70599800;2022-11-11T08:29:18;5.60;99.90
5848;DHT22;8756;49.29324300;8.70599800;2022-11-11T08:31:44;5.60;99.90
5848;DHT22;8756;49.29324300;8.70599800;2022-11-11T08:34:10;5.70;99.90
5848;DHT22;8756;49.29324300;8.70599800;2022-11-11T08:36:37;5.70;99.90
5848;DHT22;8756;49.29324300;8.70599800;2022-11-11T08:39:03;5.80;99.90
5848;DHT22;8756;49.29324300;8.70599800;2022-11-11T08:41:29;5.80;99.90
5848;DHT22;8756;49.29324300;8.70599800;2022-11-11T08:43:55;5.90;99.90
5848;DHT22;8756;49.29324300;8.70599800;2022-11-11T08:46:22;5.80;99.90
5848;DHT22;8756;49.29324300;8.70599800;2022-11-11T08:48:48;5.90;99.90
5848;DHT22;8756;49.29324300;8.70599800;2022-11-11T08:51:14;5.90;99.90
5848;DHT22;8756;49.29324300;8.70599800;2022-11-11T08:53:40;5.90;99.90
5848;DHT22;8756;49.29324300;8.70599800;2022-11-11T08:56:06;5.90;99.90
5848;DHT22;8756;49.29324300;8.70599800;2022-11-11T08:58:33;6.00;99.90
5848;DHT22;8756;49.29324300;8.70599800;2022-11-11T09:00:59;6.10;99.90
5848;DHT22;8756;49.29324300;8.70599800;2022-11-11T09:03:26;6.20;99.90
5848;DHT22;8756;49.29324300;8.70599800;2022-11-11T09:05:52;6.20;99.90
5848;DHT22;8756;49.29324300;8.70599800;2022-11-11T09:08:18;6.30;99.90
5848;DHT22;8756;49.29324300;8.70599800;2022-11-11T09:10:44;6.40;99.90
5848;DHT22;8756;49.29324300;8.70599800;2022-11-11T09:13:09;6.40;99.90
5848;DHT22;8756;49.29324300;8.70599800;2022-11-11T09:15:35;6.50;99.90
5848;DHT22;8756;49.29324300;8.70599800;2022-11-11T09:18:01;6.50;99.90
5848;DHT22;8756;49.29324300;8.70599800;2022-11-11T09:20:28;6.60;99.90
5848;DHT22;8756;49.29324300;8.70599800;2022-11-11T09:22:53;6.70;99.90
5848;DHT22;8756;49.29324300;8.70599800;2022-11-11T09:25:20;6.80;99.90
5848;DHT22;8756;49.29324300;8.70599800;2022-11-11T09:27:57;6.90;99.90
5848;DHT22;8756;49.29324300;8.70599800;2022-11-11T09:30:25;6.90;99.90
5848;DHT22;8756;49.29324300;8.70599800;2022-11-11T09:32:52;7.00;99.90
5848;DHT22;8756;49.29324300;8.70599800;2022-11-11T09:35:18;7.10;99.90
5848;DHT22;8756;49.29324300;8.70599800;2022-11-11T09:37:58;7.10;99.90
5848;DHT22;8756;49.29324300;8.70599800;2022-11-11T09:40:27;7.20;99.90
5848;DHT22;8756;49.29324300;8.70599800;2022-11-11T09:46:34;7.30;99.90
5848;DHT22;8756;49.29324300;8.70599800;2022-11-11T09:49:28;7.50;99.90
5848;DHT22;8756;49.29324300;8.70599800;2022-11-11T09:52:36;7.50;99.90
5848;DHT22;8756;49.29324300;8.70599800;2022-11-11T09:55:29;7.70;99.90
5848;DHT22;8756;49.29324300;8.70599800;2022-11-11T09:58:22;7.80;99.90
5848;DHT22;8756;49.29324300;8.70599800;2022-11-11T10:00:55;7.80;99.90
5848;DHT22;8756;49.29324300;8.70599800;2022-11-11T10:03:24;7.90;99.90
5848;DHT22;8756;49.29324300;8.70599800;2022-11-11T10:08:34;8.00;99.90
5848;DHT22;8756;49.29324300;8.70599800;2022-11-11T10:11:05;8.10;99.90
5848;DHT22;8756;49.29324300;8.70599800;2022-11-11T10:13:37;8.10;99.90
5848;DHT22;8756;49.29324300;8.70599800;2022-11-11T10:16:27;8.10;99.90
5848;DHT22;8756;49.29324300;8.70599800;2022-11-11T10:21:53;8.20;99.90
5848;DHT22;8756;49.29324300;8.70599800;2022-11-11T10:24:32;8.20;99.90
5848;DHT22;8756;49.29324300;8.70599800;2022-11-11T10:27:16;8.30;99.90
5848;DHT22;8756;49.29324300;8.70599800;2022-11-11T10:29:44;8.30;99.90
5848;DHT22;8756;49.29324300;8.70599800;2022-11-11T10:32:23;8.40;99.90
5848;DHT22;8756;49.29324300;8.70599800;2022-11-11T10:34:51;8.40;99.90
5848;DHT22;8756;49.29324300;8.70599800;2022-11-11T10:37:20;8.50;99.90
5848;DHT22;8756;49.29324300;8.70599800;2022-11-11T10:42:43;8.70;99.90
5848;DHT22;8756;49.29324300;8.70599800;2022-11-11T10:45:29;8.80;99.90
5848;DHT22;8756;49.29324300;8.70599800;2022-11-11T10:48:04;8.80;99.90
5848;DHT22;8756;49.29324300;8.70599800;2022-11-11T10:50:38;8.80;99.90
5848;DHT22;8756;49.29324300;8.70599800;2022-11-11T10:53:11;8.90;99.90
5848;DHT22;8756;49.29324300;8.70599800;2022-11-11T10:55:50;8.90;99.90
5848;DHT22;8756;49.29324300;8.70599800;2022-11-11T11:04:52;9.00;99.90
5848;DHT22;8756;49.29324300;8.70599800;2022-11-11T11:07:42;9.10;99.90
5848;DHT22;8756;49.29324300;8.70599800;2022-11-11T11:10:14;9.10;99.90
5848;DHT22;8756;49.29324300;8.70599800;2022-11-11T11:12:50;9.20;99.90
5848;DHT22;8756;49.29324300;8.70599800;2022-11-11T11:15:22;9.30;99.90
5848;DHT22;8756;49.29324300;8.70599800;2022-11-11T11:20:36;9.40;99.90
5848;DHT22;8756;49.29324300;8.70599800;2022-11-11T11:23:02;9.40;99.90
5848;DHT22;8756;49.29324300;8.70599800;2022-11-11T11:25:31;9.50;99.90
5848;DHT22;8756;49.29324300;8.70599800;2022-11-11T11:28:09;9.50;99.90
5848;DHT22;8756;49.29324300;8.70599800;2022-11-11T11:30:36;9.60;99.90
5848;DHT22;8756;49.29324300;8.70599800;2022-11-11T11:33:07;9.60;99.90
5848;DHT22;8756;49.29324300;8.70599800;2022-11-11T11:37:59;9.70;99.90
5848;DHT22;8756;49.29324300;8.70599800;2022-11-11T11:40:26;9.70;99.90
5848;DHT22;8756;49.29324300;8.70599800;2022-11-11T11:42:51;9.70;99.90
5848;DHT22;8756;49.29324300;8.70599800;2022-11-11T11:45:24;9.70;99.90
5848;DHT22;8756;49.29324300;8.70599800;2022-11-11T11:48:23;9.80;99.90
5848;DHT22;8756;49.29324300;8.70599800;2022-11-11T11:54:31;9.90;99.90
5848;DHT22;8756;49.29324300;8.70599800;2022-11-11T11:57:26;9.90;99.90
5848;DHT22;8756;49.29324300;8.70599800;2022-11-11T12:00:24;10.00;99.90
5848;DHT22;8756;49.29324300;8.70599800;2022-11-11T12:09:00;10.20;99.90
5848;DHT22;8756;49.29324300;8.70599800;2022-11-11T12:11:48;10.20;99.90
5848;DHT22;8756;49.29324300;8.70599800;2022-11-11T12:17:27;10.20;99.90
5848;DHT22;8756;49.29324300;8.70599800;2022-11-11T12:20:08;10.30;99.90
5848;DHT22;8756;49.29324300;8.70599800;2022-11-11T12:26:02;10.50;99.90
5848;DHT22;8756;49.29324300;8.70599800;2022-11-11T12:46:14;11.00;99.90
5848;DHT22;8756;49.29324300;8.70599800;2022-11-11T13:00:18;11.20;99.90
5848;DHT22;8756;49.29324300;8.70599800;2022-11-11T13:06:06;11.20;99.90
5848;DHT22;8756;49.29324300;8.70599800;2022-11-11T13:15:15;11.20;99.90
5848;DHT22;8756;49.29324300;8.70599800;2022-11-11T13:17:43;11.20;99.90
5848;DHT22;8756;49.29324300;8.70599800;2022-11-11T13:20:32;11.20;99.90
5848;DHT22;8756;49.29324300;8.70599800;2022-11-11T13:23:10;11.20;99.90
5848;DHT22;8756;49.29324300;8.70599800;2022-11-11T13:25:40;11.30;99.90
5848;DHT22;8756;49.29324300;8.70599800;2022-11-11T13:28:23;11.30;99.90
5848;DHT22;8756;49.29324300;8.70599800;2022-11-11T13:31:13;11.30;99.90
5848;DHT22;8756;49.29324300;8.70599800;2022-11-11T13:34:09;11.30;99.90
5848;DHT22;8756;49.29324300;8.70599800;2022-11-11T13:37:03;11.30;99.90
5848;DHT22;8756;49.29324300;8.70599800;2022-11-11T13:39:39;11.30;99.90
5848;DHT22;8756;49.29324300;8.70599800;2022-11-11T13:42:11;11.40;99.90
5848;DHT22;8756;49.29324300;8.70599800;2022-11-11T13:44:58;11.40;99.90
5848;DHT22;8756;49.29324300;8.70599800;2022-11-11T13:47:33;11.40;99.90
5848;DHT22;8756;49.29324300;8.70599800;2022-11-11T13:50:08;11.40;99.90
5848;DHT22;8756;49.29324300;8.70599800;2022-11-11T13:53:02;11.50;99.90
5848;DHT22;8756;49.29324300;8.70599800;2022-11-11T13:55:34;11.50;99.90
5848;DHT22;8756;49.29324300;8.70599800;2022-11-11T13:58:01;11.50;99.90
5848;DHT22;8756;49.29324300;8.70599800;2022-11-11T14:00:34;11.50;99.90
5848;DHT22;8756;49.29324300;8.70599800;2022-11-11T14:05:46;11.50;99.90
5848;DHT22;8756;49.29324300;8.70599800;2022-11-11T14:17:11;11.30;99.90
5848;DHT22;8756;49.29324300;8.70599800;2022-11-11T14:19:38;11.20;99.90
5848;DHT22;8756;49.29324300;8.70599800;2022-11-11T14:22:26;11.10;99.90
5848;DHT22;8756;49.29324300;8.70599800;2022-11-11T14:24:54;11.00;99.90
5848;DHT22;8756;49.29324300;8.70599800;2022-11-11T14:27:26;11.00;99.90
5848;DHT22;8756;49.29324300;8.70599800;2022-11-11T14:29:54;10.90;99.90
5848;DHT22;8756;49.29324300;8.70599800;2022-11-11T14:40:31;10.60;99.90
5848;DHT22;8756;49.29324300;8.70599800;2022-11-11T14:42:59;10.50;99.90
5848;DHT22;8756;49.29324300;8.70599800;2022-11-11T14:47:54;10.40;99.90
5848;DHT22;8756;49.29324300;8.70599800;2022-11-11T14:53:07;10.30;99.90
5848;DHT22;8756;49.29324300;8.70599800;2022-11-11T14:55:35;10.30;99.90
5848;DHT22;8756;49.29324300;8.70599800;2022-11-11T14:58:20;10.30;99.90
5848;DHT22;8756;49.29324300;8.70599800;2022-11-11T15:01:01;10.20;99.90
5848;DHT22;8756;49.29324300;8.70599800;2022-11-11T15:03:42;10.20;99.90
5848;DHT22;8756;49.29324300;8.70599800;2022-11-11T15:15:26;10.00;99.90
5848;DHT22;8756;49.29324300;8.70599800;2022-11-11T15:20:54;9.90;99.90
5848;DHT22;8756;49.29324300;8.70599800;2022-11-11T15:23:37;9.90;99.90
5848;DHT22;8756;49.29324300;8.70599800;2022-11-11T15:26:16;9.90;99.90
5848;DHT22;8756;49.29324300;8.70599800;2022-11-11T15:32:03;9.80;99.90
5848;DHT22;8756;49.29324300;8.70599800;2022-11-11T15:35:04;9.80;99.90
5848;DHT22;8756;49.29324300;8.70599800;2022-11-11T15:37:37;9.70;99.90
5848;DHT22;8756;49.29324300;8.70599800;2022-11-11T15:40:05;9.70;99.90
5848;DHT22;8756;49.29324300;8.70599800;2022-11-11T15:42:35;9.70;99.90
5848;DHT22;8756;49.29324300;8.70599800;2022-11-11T15:47:46;9.60;99.90
5848;DHT22;8756;49.29324300;8.70599800;2022-11-11T15:52:55;9.60;99.90
5848;DHT22;8756;49.29324300;8.70599800;2022-11-11T15:55:33;9.60;99.90
5848;DHT22;8756;49.29324300;8.70599800;2022-11-11T15:58:14;9.60;99.90
5848;DHT22;8756;49.29324300;8.70599800;2022-11-11T16:00:44;9.60;99.90
5848;DHT22;8756;49.29324300;8.70599800;2022-11-11T16:03:15;9.60;99.90
5848;DHT22;8756;49.29324300;8.70599800;2022-11-11T16:05:42;9.60;99.90
5848;DHT22;8756;49.29324300;8.70599800;2022-11-11T16:08:14;9.60;99.90
5848;DHT22;8756;49.29324300;8.70599800;2022-11-11T16:10:45;9.60;99.90
5848;DHT22;8756;49.29324300;8.70599800;2022-11-11T16:13:24;9.50;99.90
5848;DHT22;8756;49.29324300;8.70599800;2022-11-11T16:21:18;9.50;99.90
5848;DHT22;8756;49.29324300;8.70599800;2022-11-11T16:23:47;9.50;99.90
5848;DHT22;8756;49.29324300;8.70599800;2022-11-11T16:26:14;9.50;99.90
5848;DHT22;8756;49.29324300;8.70599800;2022-11-11T16:28:46;9.50;99.90
5848;DHT22;8756;49.29324300;8.70599800;2022-11-11T16:37:03;9.50;99.90
5848;DHT22;8756;49.29324300;8.70599800;2022-11-11T16:39:31;9.50;99.90
5848;DHT22;8756;49.29324300;8.70599800;2022-11-11T16:41:59;9.50;99.90
5848;DHT22;8756;49.29324300;8.70599800;2022-11-11T16:50:25;9.40;99.90
5848;DHT22;8756;49.29324300;8.70599800;2022-11-11T16:53:00;9.40;99.90
5848;DHT22;8756;49.29324300;8.70599800;2022-11-11T16:55:35;9.40;99.90